createdAt,value
2019-01-17T00:00:04.936Z,0.76
2019-01-17T00:02:54.881Z,0.68
2019-01-17T00:05:44.424Z,0.66
2019-01-17T00:08:31.503Z,0.67
2019-01-17T00:11:15.068Z,0.70
2019-01-17T00:14:02.603Z,0.72
2019-01-17T00:16:51.761Z,0.65
2019-01-17T00:19:54.920Z,0.61
2019-01-17T00:22:52.419Z,0.64
2019-01-17T00:25:41.379Z,0.65
2019-01-17T00:28:47.121Z,0.65
2019-01-17T00:31:26.666Z,0.59
2019-01-17T00:34:17.472Z,0.49
2019-01-17T00:36:58.236Z,0.45
2019-01-17T00:39:47.340Z,0.34
2019-01-17T00:42:41.212Z,0.31
2019-01-17T00:45:32.077Z,0.34
2019-01-17T00:48:19.932Z,0.26
2019-01-17T00:51:13.866Z,0.35
2019-01-17T00:54:00.099Z,0.35
2019-01-17T00:56:49.518Z,0.36
2019-01-17T00:59:28.324Z,0.35
2019-01-17T01:02:17.779Z,0.39
2019-01-17T01:05:20.737Z,0.34
2019-01-17T01:08:09.799Z,0.34
2019-01-17T01:11:13.033Z,0.43
2019-01-17T01:14:09.742Z,0.52
2019-01-17T01:17:10.908Z,0.50
2019-01-17T01:20:00.449Z,0.39
2019-01-17T01:22:43.073Z,0.52
2019-01-17T01:25:32.668Z,0.37
2019-01-17T01:28:24.809Z,0.40
2019-01-17T01:31:05.783Z,0.41
2019-01-17T01:34:09.090Z,0.39
2019-01-17T01:36:54.450Z,0.35
2019-01-17T01:39:51.278Z,0.32
2019-01-17T01:42:40.577Z,0.30
2019-01-17T01:45:29.480Z,0.29
2019-01-17T01:48:19.009Z,0.36
2019-01-17T01:51:11.414Z,0.17
2019-01-17T01:53:43.341Z,0.31
2019-01-17T01:56:15.252Z,0.75
2019-01-17T01:58:47.021Z,0.94
2019-01-17T02:01:18.984Z,1.35
2019-01-17T02:03:50.706Z,1.52
2019-01-17T02:06:22.565Z,1.53
2019-01-17T02:08:54.475Z,1.68
2019-01-17T02:11:26.405Z,1.73
2019-01-17T02:13:58.860Z,1.77
2019-01-17T02:16:30.688Z,1.90
2019-01-17T02:19:02.561Z,1.98
2019-01-17T02:21:34.586Z,1.97
2019-01-17T02:24:06.653Z,2.13
2019-01-17T02:26:39.544Z,2.12
2019-01-17T02:29:11.374Z,2.20
2019-01-17T02:31:43.151Z,2.14
2019-01-17T02:34:14.865Z,2.21
2019-01-17T02:36:46.571Z,2.28
2019-01-17T02:39:18.431Z,2.26
2019-01-17T02:41:50.288Z,2.31
2019-01-17T02:44:22.001Z,2.21
2019-01-17T02:46:53.777Z,2.25
2019-01-17T02:49:25.498Z,2.24
2019-01-17T02:51:57.525Z,2.28
2019-01-17T02:54:35.612Z,2.33
2019-01-17T02:57:02.713Z,2.28
2019-01-17T02:59:34.460Z,2.38
2019-01-17T03:02:06.378Z,2.31
2019-01-17T03:04:38.222Z,2.38
2019-01-17T03:07:10.173Z,2.44
2019-01-17T03:09:41.959Z,2.35
2019-01-17T03:12:13.810Z,2.35
2019-01-17T03:14:45.587Z,2.38
2019-01-17T03:17:18.258Z,2.35
2019-01-17T03:19:50.016Z,2.37
2019-01-17T03:22:21.710Z,2.46
2019-01-17T03:24:53.494Z,2.49
2019-01-17T03:27:25.508Z,2.53
2019-01-17T03:29:57.656Z,2.51
2019-01-17T03:32:29.843Z,2.54
2019-01-17T03:35:01.659Z,2.53
2019-01-17T03:37:33.453Z,2.51
2019-01-17T03:40:06.404Z,2.58
2019-01-17T03:42:38.282Z,2.57
2019-01-17T03:45:11.864Z,2.63
2019-01-17T03:47:43.808Z,2.63
2019-01-17T03:50:16.685Z,2.52
2019-01-17T03:52:48.634Z,2.50
2019-01-17T03:55:22.789Z,2.48
2019-01-17T03:57:54.719Z,2.47
2019-01-17T04:00:26.650Z,2.51
2019-01-17T04:02:58.570Z,2.63
2019-01-17T04:05:30.420Z,2.58
2019-01-17T04:08:02.172Z,2.68
2019-01-17T04:10:34.007Z,2.71
2019-01-17T04:13:05.898Z,2.74
2019-01-17T04:15:37.816Z,2.83
2019-01-17T04:18:10.508Z,2.83
2019-01-17T04:20:42.360Z,2.87
2019-01-17T04:23:14.317Z,2.92
2019-01-17T04:25:46.447Z,2.94
2019-01-17T04:28:18.270Z,2.78
2019-01-17T04:30:50.113Z,2.85
2019-01-17T04:33:22.227Z,2.81
2019-01-17T04:35:54.067Z,2.84
2019-01-17T04:38:25.895Z,2.73
2019-01-17T04:40:57.809Z,2.65
2019-01-17T04:43:29.988Z,2.60
2019-01-17T04:46:01.849Z,2.55
2019-01-17T04:48:33.812Z,2.47
2019-01-17T04:51:05.746Z,2.46
2019-01-17T04:53:40.647Z,2.37
2019-01-17T04:56:12.579Z,2.33
2019-01-17T04:58:46.535Z,2.33
2019-01-17T05:01:19.410Z,2.29
2019-01-17T05:03:51.345Z,2.27
2019-01-17T05:06:23.313Z,2.45
2019-01-17T05:08:55.397Z,2.56
2019-01-17T05:11:27.311Z,2.55
2019-01-17T05:13:59.109Z,2.72
2019-01-17T05:16:31.193Z,2.90
2019-01-17T05:19:03.282Z,2.93
2019-01-17T05:21:35.059Z,2.94
2019-01-17T05:24:07.024Z,2.96
2019-01-17T05:26:39.136Z,2.95
2019-01-17T05:29:10.979Z,2.90
2019-01-17T05:31:42.820Z,2.95
2019-01-17T05:34:14.956Z,2.99
2019-01-17T05:36:47.137Z,3.14
2019-01-17T05:39:19.063Z,3.17
2019-01-17T05:41:51.087Z,3.19
2019-01-17T05:44:22.998Z,3.25
2019-01-17T05:46:54.760Z,3.29
2019-01-17T05:49:26.591Z,3.36
2019-01-17T05:51:58.735Z,3.37
2019-01-17T05:54:30.514Z,3.34
2019-01-17T05:57:02.351Z,3.40
2019-01-17T05:59:34.383Z,3.36
2019-01-17T06:02:06.290Z,3.41
2019-01-17T06:04:38.236Z,3.43
2019-01-17T06:07:10.185Z,3.52
2019-01-17T06:09:41.941Z,3.51
2019-01-17T06:12:13.778Z,3.52
2019-01-17T06:14:45.670Z,3.63
2019-01-17T06:17:17.510Z,3.59
2019-01-17T06:19:49.431Z,3.59
2019-01-17T06:22:21.631Z,3.63
2019-01-17T06:24:53.490Z,3.50
2019-01-17T06:27:25.560Z,3.61
2019-01-17T06:29:57.395Z,3.56
2019-01-17T06:32:30.274Z,3.67
2019-01-17T06:35:02.649Z,3.66
2019-01-17T06:37:35.323Z,3.73
2019-01-17T06:40:13.035Z,3.69
2019-01-17T06:42:45.276Z,3.67
2019-01-17T06:45:17.178Z,3.69
2019-01-17T06:47:49.158Z,3.83
2019-01-17T06:50:21.054Z,3.81
2019-01-17T06:52:53.221Z,3.87
2019-01-17T06:55:25.063Z,3.97
2019-01-17T06:57:56.797Z,3.89
2019-01-17T07:00:29.062Z,4.02
2019-01-17T07:03:01.305Z,4.09
2019-01-17T07:05:33.049Z,4.14
2019-01-17T07:08:05.031Z,4.10
2019-01-17T07:10:36.932Z,4.16
2019-01-17T07:13:09.324Z,4.17
2019-01-17T07:15:41.340Z,4.19
2019-01-17T07:18:13.250Z,4.25
2019-01-17T07:20:45.421Z,4.24
2019-01-17T07:23:17.559Z,4.37
2019-01-17T07:25:49.517Z,4.33
2019-01-17T07:28:21.606Z,4.34
2019-01-17T07:30:53.499Z,4.26
2019-01-17T07:33:25.443Z,4.27
2019-01-17T07:35:57.373Z,4.30
2019-01-17T07:38:29.295Z,4.36
2019-01-17T07:41:01.227Z,4.27
2019-01-17T07:43:33.196Z,4.35
2019-01-17T07:46:06.224Z,4.30
2019-01-17T07:48:38.191Z,4.35
2019-01-17T07:51:10.554Z,4.29
2019-01-17T07:53:42.392Z,4.27
2019-01-17T07:56:14.324Z,4.19
2019-01-17T07:58:46.274Z,4.23
2019-01-17T08:01:18.512Z,4.15
2019-01-17T08:03:50.348Z,4.15
2019-01-17T08:06:22.493Z,4.14
2019-01-17T08:08:54.409Z,4.24
2019-01-17T08:11:26.268Z,4.23
2019-01-17T08:13:58.181Z,4.21
2019-01-17T08:16:30.091Z,4.21
2019-01-17T08:19:02.002Z,4.27
2019-01-17T08:21:33.824Z,4.25
2019-01-17T08:24:05.953Z,4.23
2019-01-17T08:26:37.935Z,4.29
2019-01-17T08:29:09.857Z,4.32
2019-01-17T08:31:41.774Z,4.37
2019-01-17T08:34:13.728Z,4.34
2019-01-17T08:36:45.697Z,4.36
2019-01-17T08:39:17.507Z,4.29
2019-01-17T08:41:49.346Z,4.28
2019-01-17T08:44:21.462Z,4.26
2019-01-17T08:46:53.358Z,4.31
2019-01-17T08:49:25.293Z,4.29
2019-01-17T08:51:57.220Z,4.36
2019-01-17T08:54:29.353Z,4.37
2019-01-17T08:57:01.363Z,4.33
2019-01-17T08:59:33.142Z,4.35
2019-01-17T09:02:05.242Z,4.41
2019-01-17T09:04:37.150Z,4.38
2019-01-17T09:07:09.327Z,4.37
2019-01-17T09:09:41.584Z,4.33
2019-01-17T09:12:13.411Z,4.39
2019-01-17T09:14:45.315Z,4.39
2019-01-17T09:17:17.226Z,4.41
2019-01-17T09:19:48.995Z,4.42
2019-01-17T09:22:20.833Z,4.40
2019-01-17T09:24:52.670Z,4.39
2019-01-17T09:27:24.553Z,4.46
2019-01-17T09:29:56.422Z,4.37
2019-01-17T09:32:28.347Z,4.38
2019-01-17T09:35:00.239Z,4.40
2019-01-17T09:37:32.072Z,4.47
2019-01-17T09:40:04.093Z,4.38
2019-01-17T09:42:35.868Z,4.43
2019-01-17T09:45:08.533Z,4.55
2019-01-17T09:47:40.512Z,4.59
2019-01-17T09:50:22.405Z,4.56
2019-01-17T09:52:54.427Z,4.53
2019-01-17T09:55:26.523Z,4.63
2019-01-17T09:57:58.347Z,4.61
2019-01-17T10:00:32.211Z,4.61
2019-01-17T10:03:04.716Z,4.63
2019-01-17T10:05:36.891Z,4.68
2019-01-17T10:08:10.050Z,4.68
2019-01-17T10:10:41.964Z,4.66
2019-01-17T10:13:13.794Z,4.76
2019-01-17T10:15:58.255Z,4.73
2019-01-17T10:19:35.464Z,4.70
2019-01-17T10:23:01.272Z,4.68
2019-01-17T10:26:22.903Z,4.79
2019-01-17T10:29:51.042Z,4.85
2019-01-17T10:32:59.225Z,4.87
2019-01-17T10:35:50.439Z,4.78
2019-01-17T10:39:08.025Z,4.85
2019-01-17T10:42:31.898Z,4.88
2019-01-17T10:45:59.459Z,4.86
2019-01-17T10:49:55.448Z,4.85
2019-01-17T10:53:18.506Z,4.83
2019-01-17T10:56:58.186Z,4.88
2019-01-17T11:00:13.353Z,4.91
2019-01-17T11:03:39.099Z,4.87
2019-01-17T11:06:56.417Z,4.85
2019-01-17T11:10:13.317Z,4.93
2019-01-17T11:13:47.898Z,4.89
2019-01-17T11:17:21.516Z,4.92
2019-01-17T11:20:40.890Z,4.88
2019-01-17T11:23:58.263Z,4.88
2019-01-17T11:27:26.055Z,4.92
2019-01-17T11:30:33.485Z,4.86
2019-01-17T11:34:23.644Z,4.91
2019-01-17T11:37:46.916Z,4.85
2019-01-17T11:41:03.132Z,4.77
2019-01-17T11:44:22.260Z,4.79
2019-01-17T11:47:46.249Z,4.75
2019-01-17T11:51:07.963Z,4.73
2019-01-17T11:54:11.821Z,4.71
2019-01-17T11:57:32.317Z,4.66
2019-01-17T12:01:12.281Z,4.65
2019-01-17T12:04:30.492Z,4.64
2019-01-17T12:07:09.749Z,4.65
2019-01-17T12:09:41.582Z,4.60
2019-01-17T12:12:16.402Z,4.64
2019-01-17T12:14:48.491Z,4.59
2019-01-17T12:17:20.315Z,4.12
2019-01-17T12:19:52.147Z,3.80
2019-01-17T12:22:24.818Z,3.38
2019-01-17T12:24:56.719Z,3.31
2019-01-17T12:27:28.563Z,3.17
2019-01-17T12:30:00.586Z,3.07
2019-01-17T12:32:32.340Z,2.93
2019-01-17T12:35:04.535Z,3.05
2019-01-17T12:37:36.400Z,3.01
2019-01-17T12:40:10.959Z,3.03
2019-01-17T12:42:42.853Z,3.05
2019-01-17T12:45:15.071Z,2.89
2019-01-17T12:47:46.918Z,3.16
2019-01-17T12:50:20.388Z,3.14
2019-01-17T12:52:52.152Z,3.25
2019-01-17T12:55:24.172Z,3.34
2019-01-17T12:57:56.484Z,3.40
2019-01-17T13:00:28.771Z,3.26
2019-01-17T13:03:00.823Z,3.44
2019-01-17T13:05:32.823Z,3.33
2019-01-17T13:08:04.834Z,3.51
2019-01-17T13:10:36.836Z,3.49
2019-01-17T13:13:08.675Z,3.61
2019-01-17T13:15:40.600Z,3.54
2019-01-17T13:18:12.357Z,3.56
2019-01-17T13:20:44.619Z,3.63
2019-01-17T13:23:16.536Z,3.72
2019-01-17T13:25:48.556Z,3.67
2019-01-17T13:28:20.750Z,3.66
2019-01-17T13:30:52.614Z,3.73
2019-01-17T13:33:24.520Z,3.70
2019-01-17T13:35:56.291Z,3.69
2019-01-17T13:38:28.385Z,3.76
2019-01-17T13:41:00.567Z,3.78
2019-01-17T13:43:32.488Z,3.87
2019-01-17T13:46:04.407Z,3.85
2019-01-17T13:48:36.391Z,3.77
2019-01-17T13:51:08.399Z,3.86
2019-01-17T13:53:40.405Z,3.81
2019-01-17T13:56:12.325Z,3.87
2019-01-17T13:58:44.234Z,3.82
2019-01-17T14:01:16.076Z,3.75
2019-01-17T14:03:47.920Z,3.85
2019-01-17T14:06:19.833Z,3.93
2019-01-17T14:08:51.597Z,3.89
2019-01-17T14:11:23.463Z,3.96
2019-01-17T14:13:55.427Z,4.00
2019-01-17T14:16:27.448Z,4.26
2019-01-17T14:18:59.283Z,4.39
2019-01-17T14:21:31.126Z,4.69
2019-01-17T14:24:02.953Z,4.79
2019-01-17T14:26:34.840Z,4.94
2019-01-17T14:29:06.755Z,5.11
2019-01-17T14:31:38.601Z,5.02
2019-01-17T14:34:10.435Z,4.88
2019-01-17T14:36:42.364Z,4.88
2019-01-17T14:39:14.201Z,5.00
2019-01-17T14:41:46.055Z,4.91
2019-01-17T14:44:17.820Z,4.72
2019-01-17T14:46:49.742Z,4.68
2019-01-17T14:49:21.593Z,4.49
2019-01-17T14:51:53.512Z,4.42
2019-01-17T14:54:25.647Z,4.39
2019-01-17T14:56:57.496Z,4.32
2019-01-17T14:59:29.420Z,4.24
2019-01-17T15:02:02.244Z,4.27
2019-01-17T15:04:34.151Z,4.36
2019-01-17T15:07:06.058Z,4.95
2019-01-17T15:09:37.908Z,5.09
2019-01-17T15:12:10.159Z,5.10
2019-01-17T15:14:41.994Z,5.08
2019-01-17T15:17:13.835Z,4.50
2019-01-17T15:19:45.765Z,4.25
2019-01-17T15:22:17.619Z,4.01
2019-01-17T15:24:49.382Z,4.05
2019-01-17T15:27:27.158Z,3.91
2019-01-17T15:29:54.747Z,3.79
2019-01-17T15:32:26.677Z,3.78
2019-01-17T15:34:58.602Z,3.69
2019-01-17T15:37:30.453Z,3.79
2019-01-17T15:40:02.364Z,3.74
2019-01-17T15:42:34.493Z,3.68
2019-01-17T15:45:07.509Z,3.65
2019-01-17T15:47:39.441Z,3.63
2019-01-17T15:50:11.874Z,3.74
2019-01-17T15:52:43.789Z,3.49
2019-01-17T15:55:15.966Z,3.51
2019-01-17T15:57:47.906Z,3.39
2019-01-17T16:00:28.832Z,3.50
2019-01-17T16:03:00.959Z,3.34
2019-01-17T16:05:32.869Z,3.36
2019-01-17T16:08:04.727Z,3.37
2019-01-17T16:10:36.607Z,3.34
2019-01-17T16:13:08.405Z,3.14
2019-01-17T16:15:40.307Z,3.02
2019-01-17T16:18:12.109Z,2.96
2019-01-17T16:20:43.953Z,2.92
2019-01-17T16:23:15.885Z,2.87
2019-01-17T16:25:47.987Z,2.84
2019-01-17T16:28:20.076Z,2.87
2019-01-17T16:30:51.975Z,2.94
2019-01-17T16:33:23.904Z,2.80
2019-01-17T16:35:56.031Z,2.74
2019-01-17T16:38:28.210Z,2.97
2019-01-17T16:40:59.971Z,2.91
2019-01-17T16:43:31.876Z,2.90
2019-01-17T16:46:03.802Z,3.01
2019-01-17T16:48:35.647Z,3.03
2019-01-17T16:51:07.572Z,2.92
2019-01-17T16:53:39.367Z,2.97
2019-01-17T16:56:11.211Z,3.07
2019-01-17T16:58:43.066Z,3.07
2019-01-17T17:01:14.825Z,2.97
2019-01-17T17:03:46.610Z,2.99
2019-01-17T17:06:18.610Z,3.05
2019-01-17T17:08:50.461Z,3.19
2019-01-17T17:11:22.230Z,3.16
2019-01-17T17:13:54.092Z,3.07
2019-01-17T17:16:26.211Z,3.15
2019-01-17T17:18:58.376Z,3.19
2019-01-17T17:21:30.300Z,3.22
2019-01-17T17:24:02.318Z,3.20
2019-01-17T17:26:34.374Z,3.15
2019-01-17T17:29:06.464Z,3.21
2019-01-17T17:31:38.597Z,3.24
2019-01-17T17:34:10.571Z,3.24
2019-01-17T17:36:42.403Z,3.20
2019-01-17T17:39:14.440Z,3.12
2019-01-17T17:41:46.652Z,3.13
2019-01-17T17:44:18.796Z,3.16
2019-01-17T17:46:50.950Z,3.19
2019-01-17T17:49:22.860Z,3.15
2019-01-17T17:51:54.963Z,3.07
2019-01-17T17:54:26.738Z,2.97
2019-01-17T17:56:58.650Z,2.94
2019-01-17T17:59:30.426Z,2.86
2019-01-17T18:02:05.856Z,2.48
2019-01-17T18:04:37.890Z,2.45
2019-01-17T18:07:09.897Z,2.32
2019-01-17T18:09:41.928Z,2.18
2019-01-17T18:12:13.710Z,2.07
2019-01-17T18:14:45.722Z,1.97
2019-01-17T18:17:17.806Z,1.85
2019-01-17T18:19:50.097Z,1.98
2019-01-17T18:22:22.112Z,1.81
2019-01-17T18:24:53.956Z,1.84
2019-01-17T18:27:26.116Z,1.93
2019-01-17T18:29:58.065Z,1.79
2019-01-17T18:32:30.047Z,1.84
2019-01-17T18:35:01.995Z,1.80
2019-01-17T18:37:34.095Z,1.77
2019-01-17T18:40:08.930Z,1.24
2019-01-17T18:42:40.840Z,1.16
2019-01-17T18:45:15.950Z,0.97
2019-01-17T18:47:48.139Z,0.91
2019-01-17T18:50:23.803Z,0.90
2019-01-17T18:52:55.714Z,0.95
2019-01-17T18:55:27.964Z,0.83
2019-01-17T18:58:00.160Z,0.70
2019-01-17T19:00:32.864Z,0.70
2019-01-17T19:03:04.919Z,0.64
2019-01-17T19:05:36.875Z,0.52
2019-01-17T19:08:09.986Z,0.52
2019-01-17T19:10:42.356Z,0.57
2019-01-17T19:13:14.375Z,0.49
2019-01-17T19:15:46.355Z,0.55
2019-01-17T19:18:18.806Z,0.68
2019-01-17T19:20:50.744Z,0.64
2019-01-17T19:23:22.784Z,0.76
2019-01-17T19:25:54.871Z,0.87
2019-01-17T19:28:26.746Z,0.93
2019-01-17T19:30:58.666Z,0.95
2019-01-17T19:33:30.721Z,0.90
2019-01-17T19:36:02.753Z,0.99
2019-01-17T19:38:34.726Z,0.94
2019-01-17T19:41:07.037Z,1.10
2019-01-17T19:43:39.127Z,1.13
2019-01-17T19:46:11.166Z,1.17
2019-01-17T19:48:43.369Z,1.16
2019-01-17T19:51:15.292Z,1.19
2019-01-17T19:53:48.202Z,1.22
2019-01-17T19:56:20.210Z,1.10
2019-01-17T19:58:52.185Z,1.00
2019-01-17T20:01:25.396Z,1.19
2019-01-17T20:03:57.322Z,1.15
2019-01-17T20:06:29.163Z,1.19
2019-01-17T20:09:01.104Z,1.18
2019-01-17T20:11:34.376Z,1.12
2019-01-17T20:14:06.393Z,1.27
2019-01-17T20:16:38.244Z,1.20
2019-01-17T20:19:10.091Z,1.30
2019-01-17T20:21:41.913Z,1.19
2019-01-17T20:24:14.835Z,1.09
2019-01-17T20:26:46.734Z,1.06
2019-01-17T20:29:19.116Z,1.16
2019-01-17T20:31:51.207Z,1.11
2019-01-17T20:34:23.074Z,1.31
2019-01-17T20:36:54.989Z,1.08
2019-01-17T20:39:26.834Z,1.18
2019-01-17T20:41:58.651Z,1.21
2019-01-17T20:44:30.581Z,1.21
2019-01-17T20:47:02.481Z,1.26
2019-01-17T20:49:34.389Z,1.23
2019-01-17T20:52:06.238Z,1.03
2019-01-17T20:54:38.094Z,1.20
2019-01-17T20:57:11.056Z,0.98
2019-01-17T20:59:42.918Z,1.12
2019-01-17T21:02:20.693Z,1.05
2019-01-17T21:04:53.815Z,0.98
2019-01-17T21:07:25.892Z,1.09
2019-01-17T21:09:57.653Z,1.01
2019-01-17T21:12:29.719Z,0.84
2019-01-17T21:15:01.876Z,0.85
2019-01-17T21:17:33.833Z,0.84
2019-01-17T21:20:06.722Z,0.63
2019-01-17T21:22:39.628Z,0.79
2019-01-17T21:25:15.216Z,0.67
2019-01-17T21:27:47.115Z,0.58
2019-01-17T21:30:23.679Z,0.55
2019-01-17T21:32:55.493Z,0.48
2019-01-17T21:35:27.406Z,0.55
2019-01-17T21:37:59.645Z,0.27
2019-01-17T21:40:31.513Z,0.56
2019-01-17T21:43:03.516Z,0.37
2019-01-17T21:45:35.364Z,0.22
2019-01-17T21:48:07.251Z,0.36
2019-01-17T21:50:39.431Z,0.26
2019-01-17T21:53:11.614Z,0.13
2019-01-17T21:55:43.691Z,0.23
2019-01-17T21:58:15.565Z,0.31
2019-01-17T22:00:47.343Z,0.18
2019-01-17T22:03:19.188Z,0.28
2019-01-17T22:05:51.024Z,0.49
2019-01-17T22:08:22.854Z,0.43
2019-01-17T22:10:54.826Z,0.15
2019-01-17T22:13:26.679Z,0.24
2019-01-17T22:15:58.868Z,0.25
2019-01-17T22:18:30.719Z,0.07
2019-01-17T22:21:02.485Z,0.25
2019-01-17T22:23:35.520Z,0.24
2019-01-17T22:26:07.438Z,0.07
2019-01-17T22:28:39.259Z,0.22
2019-01-17T22:31:11.038Z,-0.01
2019-01-17T22:33:42.857Z,0.04
2019-01-17T22:36:15.725Z,0.24
2019-01-17T22:38:47.570Z,0.42
2019-01-17T22:41:19.488Z,0.44
2019-01-17T22:43:51.595Z,0.39
2019-01-17T22:46:23.356Z,0.46
2019-01-17T22:48:55.200Z,0.39
2019-01-17T22:51:27.026Z,0.45
2019-01-17T22:53:59.100Z,0.42
2019-01-17T22:56:31.364Z,0.43
2019-01-17T22:59:09.104Z,0.38
2019-01-17T23:01:36.937Z,0.36
2019-01-17T23:04:08.993Z,0.33
2019-01-17T23:06:40.850Z,0.30
2019-01-17T23:09:12.677Z,0.26
2019-01-17T23:11:44.522Z,0.19
2019-01-17T23:14:16.500Z,0.15
2019-01-17T23:16:48.492Z,0.15
2019-01-17T23:19:20.266Z,0.14
2019-01-17T23:21:52.446Z,0.12
2019-01-17T23:24:24.271Z,0.04
2019-01-17T23:26:56.128Z,0.06
2019-01-17T23:29:28.170Z,0.14
2019-01-17T23:31:59.941Z,0.12
2019-01-17T23:34:32.133Z,0.08
2019-01-17T23:37:04.138Z,0.02
2019-01-17T23:39:35.894Z,-0.04
2019-01-17T23:42:07.819Z,0.00
2019-01-17T23:44:39.650Z,0.00
2019-01-17T23:47:11.641Z,-0.09
2019-01-17T23:49:43.769Z,-0.10
2019-01-17T23:52:15.633Z,-0.10
2019-01-17T23:54:47.667Z,-0.29
2019-01-17T23:57:19.516Z,-0.29
2019-01-17T23:59:51.321Z,-0.18
